sensor_id;sensor_type;location;lat;lon;timestamp;P1;durP1;ratioP1;P2;durP2;ratioP2
35891;SDS011;21993;42.672;23.296;2023-06-22T00:01:17;9.83;;;8.50;;
35891;SDS011;21993;42.672;23.296;2023-06-22T00:03:43;9.87;;;8.37;;
35891;SDS011;21993;42.672;23.296;2023-06-22T00:06:09;11.53;;;8.50;;
35891;SDS011;21993;42.672;23.296;2023-06-22T00:08:34;12.77;;;8.10;;
35891;SDS011;21993;42.672;23.296;2023-06-22T00:11:00;8.77;;;7.30;;
35891;SDS011;21993;42.672;23.296;2023-06-22T00:13:25;11.83;;;8.03;;
35891;SDS011;21993;42.672;23.296;2023-06-22T00:15:51;12.73;;;7.50;;
35891;SDS011;21993;42.672;23.296;2023-06-22T00:18:16;9.40;;;6.77;;
35891;SDS011;21993;42.672;23.296;2023-06-22T00:20:42;10.23;;;7.57;;
35891;SDS011;21993;42.672;23.296;2023-06-22T00:23:07;8.67;;;7.13;;
35891;SDS011;21993;42.672;23.296;2023-06-22T00:25:36;8.77;;;7.70;;
35891;SDS011;21993;42.672;23.296;2023-06-22T00:28:03;9.17;;;7.37;;
35891;SDS011;21993;42.672;23.296;2023-06-22T00:30:30;11.63;;;8.27;;
35891;SDS011;21993;42.672;23.296;2023-06-22T00:32:56;8.93;;;7.93;;
35891;SDS011;21993;42.672;23.296;2023-06-22T00:35:22;11.43;;;7.57;;
35891;SDS011;21993;42.672;23.296;2023-06-22T00:37:47;10.07;;;7.80;;
35891;SDS011;21993;42.672;23.296;2023-06-22T00:40:13;10.17;;;8.20;;
35891;SDS011;21993;42.672;23.296;2023-06-22T00:42:39;11.40;;;7.33;;
35891;SDS011;21993;42.672;23.296;2023-06-22T00:45:06;10.57;;;7.80;;
35891;SDS011;21993;42.672;23.296;2023-06-22T00:47:32;11.83;;;8.50;;
35891;SDS011;21993;42.672;23.296;2023-06-22T00:49:59;9.17;;;7.43;;
35891;SDS011;21993;42.672;23.296;2023-06-22T00:52:25;9.27;;;8.37;;
35891;SDS011;21993;42.672;23.296;2023-06-22T00:54:54;12.47;;;7.80;;
35891;SDS011;21993;42.672;23.296;2023-06-22T00:57:20;8.77;;;7.87;;
35891;SDS011;21993;42.672;23.296;2023-06-22T00:59:47;9.57;;;7.90;;
35891;SDS011;21993;42.672;23.296;2023-06-22T01:02:13;12.80;;;8.67;;
35891;SDS011;21993;42.672;23.296;2023-06-22T01:04:39;9.87;;;8.00;;
35891;SDS011;21993;42.672;23.296;2023-06-22T01:12:52;12.47;;;8.13;;
35891;SDS011;21993;42.672;23.296;2023-06-22T01:17:57;9.30;;;8.30;;
35891;SDS011;21993;42.672;23.296;2023-06-22T01:20:24;13.33;;;9.37;;
35891;SDS011;21993;42.672;23.296;2023-06-22T01:23:11;12.83;;;8.60;;
35891;SDS011;21993;42.672;23.296;2023-06-22T01:26:08;15.17;;;9.10;;
35891;SDS011;21993;42.672;23.296;2023-06-22T01:28:45;10.97;;;9.10;;
35891;SDS011;21993;42.672;23.296;2023-06-22T01:31:17;10.73;;;8.63;;
35891;SDS011;21993;42.672;23.296;2023-06-22T01:33:55;11.40;;;8.13;;
35891;SDS011;21993;42.672;23.296;2023-06-22T01:36:24;10.67;;;8.90;;
35891;SDS011;21993;42.672;23.296;2023-06-22T01:38:50;10.73;;;8.63;;
35891;SDS011;21993;42.672;23.296;2023-06-22T01:41:18;10.17;;;8.77;;
35891;SDS011;21993;42.672;23.296;2023-06-22T01:43:45;11.57;;;9.20;;
35891;SDS011;21993;42.672;23.296;2023-06-22T01:46:11;11.97;;;9.03;;
35891;SDS011;21993;42.672;23.296;2023-06-22T01:48:37;11.60;;;9.60;;
35891;SDS011;21993;42.672;23.296;2023-06-22T01:51:04;12.13;;;8.87;;
35891;SDS011;21993;42.672;23.296;2023-06-22T01:53:30;11.50;;;8.30;;
35891;SDS011;21993;42.672;23.296;2023-06-22T01:55:56;10.27;;;8.10;;
35891;SDS011;21993;42.672;23.296;2023-06-22T01:58:23;12.43;;;8.67;;
35891;SDS011;21993;42.672;23.296;2023-06-22T02:01:05;10.43;;;8.47;;
35891;SDS011;21993;42.672;23.296;2023-06-22T02:03:37;15.27;;;8.53;;
35891;SDS011;21993;42.672;23.296;2023-06-22T02:06:11;10.57;;;8.27;;
35891;SDS011;21993;42.672;23.296;2023-06-22T02:08:54;14.07;;;9.03;;
35891;SDS011;21993;42.672;23.296;2023-06-22T02:11:22;11.90;;;8.30;;
35891;SDS011;21993;42.672;23.296;2023-06-22T02:13:49;11.60;;;9.17;;
35891;SDS011;21993;42.672;23.296;2023-06-22T02:16:15;11.07;;;8.80;;
35891;SDS011;21993;42.672;23.296;2023-06-22T02:18:49;9.73;;;8.43;;
35891;SDS011;21993;42.672;23.296;2023-06-22T02:21:19;13.40;;;9.13;;
35891;SDS011;21993;42.672;23.296;2023-06-22T02:23:45;13.43;;;8.83;;
35891;SDS011;21993;42.672;23.296;2023-06-22T02:26:11;10.70;;;8.50;;
35891;SDS011;21993;42.672;23.296;2023-06-22T02:28:36;14.70;;;9.80;;
35891;SDS011;21993;42.672;23.296;2023-06-22T02:31:02;14.00;;;9.30;;
35891;SDS011;21993;42.672;23.296;2023-06-22T02:33:27;11.60;;;8.50;;
35891;SDS011;21993;42.672;23.296;2023-06-22T02:35:53;11.97;;;8.77;;
35891;SDS011;21993;42.672;23.296;2023-06-22T02:38:19;12.47;;;9.13;;
35891;SDS011;21993;42.672;23.296;2023-06-22T02:40:45;12.73;;;9.53;;
35891;SDS011;21993;42.672;23.296;2023-06-22T02:43:10;14.93;;;9.17;;
35891;SDS011;21993;42.672;23.296;2023-06-22T02:45:36;12.00;;;8.30;;
35891;SDS011;21993;42.672;23.296;2023-06-22T02:48:01;15.70;;;8.63;;
35891;SDS011;21993;42.672;23.296;2023-06-22T02:50:26;9.40;;;8.17;;
35891;SDS011;21993;42.672;23.296;2023-06-22T02:52:52;9.87;;;8.10;;
35891;SDS011;21993;42.672;23.296;2023-06-22T02:55:17;9.43;;;8.10;;
35891;SDS011;21993;42.672;23.296;2023-06-22T02:57:43;11.00;;;8.83;;
35891;SDS011;21993;42.672;23.296;2023-06-22T03:00:10;11.87;;;9.17;;
35891;SDS011;21993;42.672;23.296;2023-06-22T03:02:44;12.27;;;8.83;;
35891;SDS011;21993;42.672;23.296;2023-06-22T03:05:11;12.13;;;9.43;;
35891;SDS011;21993;42.672;23.296;2023-06-22T03:07:42;12.47;;;9.20;;
35891;SDS011;21993;42.672;23.296;2023-06-22T03:10:09;20.77;;;10.00;;
35891;SDS011;21993;42.672;23.296;2023-06-22T03:12:35;15.40;;;9.67;;
35891;SDS011;21993;42.672;23.296;2023-06-22T03:15:01;16.77;;;10.07;;
35891;SDS011;21993;42.672;23.296;2023-06-22T03:17:27;13.90;;;10.90;;
35891;SDS011;21993;42.672;23.296;2023-06-22T03:19:52;18.13;;;12.17;;
35891;SDS011;21993;42.672;23.296;2023-06-22T03:22:18;17.20;;;12.40;;
35891;SDS011;21993;42.672;23.296;2023-06-22T03:24:43;16.00;;;10.67;;
35891;SDS011;21993;42.672;23.296;2023-06-22T03:27:08;13.30;;;10.73;;
35891;SDS011;21993;42.672;23.296;2023-06-22T03:29:34;13.23;;;9.83;;
35891;SDS011;21993;42.672;23.296;2023-06-22T03:31:59;14.40;;;11.77;;
35891;SDS011;21993;42.672;23.296;2023-06-22T03:34:25;15.87;;;11.07;;
35891;SDS011;21993;42.672;23.296;2023-06-22T03:36:50;14.53;;;11.37;;
35891;SDS011;21993;42.672;23.296;2023-06-22T03:39:15;16.50;;;12.13;;
35891;SDS011;21993;42.672;23.296;2023-06-22T03:41:41;14.43;;;11.37;;
35891;SDS011;21993;42.672;23.296;2023-06-22T03:44:06;16.13;;;12.90;;
35891;SDS011;21993;42.672;23.296;2023-06-22T03:46:35;28.07;;;13.70;;
35891;SDS011;21993;42.672;23.296;2023-06-22T03:49:01;18.47;;;11.90;;
35891;SDS011;21993;42.672;23.296;2023-06-22T03:51:28;17.97;;;11.43;;
35891;SDS011;21993;42.672;23.296;2023-06-22T03:53:53;16.90;;;11.90;;
35891;SDS011;21993;42.672;23.296;2023-06-22T03:56:19;15.90;;;11.57;;
35891;SDS011;21993;42.672;23.296;2023-06-22T03:58:45;15.60;;;12.03;;
35891;SDS011;21993;42.672;23.296;2023-06-22T04:01:11;18.03;;;12.33;;
35891;SDS011;21993;42.672;23.296;2023-06-22T04:03:37;15.77;;;13.03;;
35891;SDS011;21993;42.672;23.296;2023-06-22T04:06:03;16.37;;;11.43;;
35891;SDS011;21993;42.672;23.296;2023-06-22T04:08:29;17.40;;;12.13;;
35891;SDS011;21993;42.672;23.296;2023-06-22T04:10:55;14.57;;;11.97;;
35891;SDS011;21993;42.672;23.296;2023-06-22T04:13:20;17.07;;;12.03;;
35891;SDS011;21993;42.672;23.296;2023-06-22T04:15:46;14.67;;;11.23;;
35891;SDS011;21993;42.672;23.296;2023-06-22T04:18:11;13.90;;;12.40;;
35891;SDS011;21993;42.672;23.296;2023-06-22T04:20:38;13.80;;;12.07;;
35891;SDS011;21993;42.672;23.296;2023-06-22T04:23:04;18.30;;;11.57;;
35891;SDS011;21993;42.672;23.296;2023-06-22T04:25:29;15.40;;;12.23;;
35891;SDS011;21993;42.672;23.296;2023-06-22T04:27:54;17.00;;;12.60;;
35891;SDS011;21993;42.672;23.296;2023-06-22T04:30:20;17.00;;;12.27;;
35891;SDS011;21993;42.672;23.296;2023-06-22T04:32:45;16.97;;;12.17;;
35891;SDS011;21993;42.672;23.296;2023-06-22T04:35:22;20.87;;;12.40;;
35891;SDS011;21993;42.672;23.296;2023-06-22T04:37:48;16.80;;;13.23;;
35891;SDS011;21993;42.672;23.296;2023-06-22T04:40:14;15.23;;;12.00;;
35891;SDS011;21993;42.672;23.296;2023-06-22T04:42:40;15.27;;;11.93;;
35891;SDS011;21993;42.672;23.296;2023-06-22T04:45:18;23.70;;;12.73;;
35891;SDS011;21993;42.672;23.296;2023-06-22T04:47:44;24.13;;;13.87;;
35891;SDS011;21993;42.672;23.296;2023-06-22T04:50:10;15.57;;;11.83;;
35891;SDS011;21993;42.672;23.296;2023-06-22T04:52:36;18.63;;;13.20;;
35891;SDS011;21993;42.672;23.296;2023-06-22T04:55:02;17.10;;;12.43;;
35891;SDS011;21993;42.672;23.296;2023-06-22T04:57:28;19.17;;;12.77;;
35891;SDS011;21993;42.672;23.296;2023-06-22T04:59:57;15.93;;;12.17;;
35891;SDS011;21993;42.672;23.296;2023-06-22T05:02:22;15.57;;;12.23;;
35891;SDS011;21993;42.672;23.296;2023-06-22T05:04:52;14.03;;;10.53;;
35891;SDS011;21993;42.672;23.296;2023-06-22T05:07:21;18.70;;;12.93;;
35891;SDS011;21993;42.672;23.296;2023-06-22T05:09:50;17.10;;;12.13;;
35891;SDS011;21993;42.672;23.296;2023-06-22T05:12:16;13.30;;;11.90;;
35891;SDS011;21993;42.672;23.296;2023-06-22T05:14:41;14.57;;;11.33;;
35891;SDS011;21993;42.672;23.296;2023-06-22T05:17:06;14.87;;;12.17;;
35891;SDS011;21993;42.672;23.296;2023-06-22T05:19:38;13.90;;;10.67;;
35891;SDS011;21993;42.672;23.296;2023-06-22T05:22:03;12.67;;;9.90;;
35891;SDS011;21993;42.672;23.296;2023-06-22T05:24:29;12.90;;;10.97;;
35891;SDS011;21993;42.672;23.296;2023-06-22T05:26:54;15.20;;;11.33;;
35891;SDS011;21993;42.672;23.296;2023-06-22T05:29:20;16.93;;;10.17;;
35891;SDS011;21993;42.672;23.296;2023-06-22T05:31:47;16.97;;;11.30;;
35891;SDS011;21993;42.672;23.296;2023-06-22T05:34:12;16.93;;;11.17;;
35891;SDS011;21993;42.672;23.296;2023-06-22T05:36:38;13.93;;;11.27;;
35891;SDS011;21993;42.672;23.296;2023-06-22T05:39:13;14.47;;;11.77;;
35891;SDS011;21993;42.672;23.296;2023-06-22T05:41:40;13.40;;;11.50;;
35891;SDS011;21993;42.672;23.296;2023-06-22T05:44:06;18.23;;;12.17;;
35891;SDS011;21993;42.672;23.296;2023-06-22T05:46:31;20.53;;;12.27;;
35891;SDS011;21993;42.672;23.296;2023-06-22T05:48:57;18.33;;;13.83;;
35891;SDS011;21993;42.672;23.296;2023-06-22T05:51:22;18.00;;;12.93;;
35891;SDS011;21993;42.672;23.296;2023-06-22T05:53:48;16.37;;;12.23;;
35891;SDS011;21993;42.672;23.296;2023-06-22T05:56:17;19.93;;;12.27;;
35891;SDS011;21993;42.672;23.296;2023-06-22T05:58:43;25.93;;;15.63;;
35891;SDS011;21993;42.672;23.296;2023-06-22T06:01:08;19.43;;;14.30;;
35891;SDS011;21993;42.672;23.296;2023-06-22T06:03:33;17.10;;;12.70;;
35891;SDS011;21993;42.672;23.296;2023-06-22T06:05:59;15.47;;;12.53;;
35891;SDS011;21993;42.672;23.296;2023-06-22T06:08:24;15.90;;;12.23;;
35891;SDS011;21993;42.672;23.296;2023-06-22T06:10:50;17.13;;;11.23;;
35891;SDS011;21993;42.672;23.296;2023-06-22T06:13:18;16.03;;;12.73;;
35891;SDS011;21993;42.672;23.296;2023-06-22T06:15:43;21.40;;;12.93;;
35891;SDS011;21993;42.672;23.296;2023-06-22T06:18:08;19.03;;;13.07;;
35891;SDS011;21993;42.672;23.296;2023-06-22T06:20:34;20.90;;;13.43;;
35891;SDS011;21993;42.672;23.296;2023-06-22T06:23:00;18.03;;;14.30;;
35891;SDS011;21993;42.672;23.296;2023-06-22T06:25:26;14.63;;;11.50;;
35891;SDS011;21993;42.672;23.296;2023-06-22T06:27:52;13.77;;;11.93;;
35891;SDS011;21993;42.672;23.296;2023-06-22T06:30:19;15.43;;;11.77;;
35891;SDS011;21993;42.672;23.296;2023-06-22T06:32:45;17.47;;;12.27;;
35891;SDS011;21993;42.672;23.296;2023-06-22T06:35:12;17.03;;;11.20;;
35891;SDS011;21993;42.672;23.296;2023-06-22T06:37:41;15.17;;;11.97;;
35891;SDS011;21993;42.672;23.296;2023-06-22T06:40:09;16.20;;;11.80;;
35891;SDS011;21993;42.672;23.296;2023-06-22T06:42:39;18.10;;;11.87;;
35891;SDS011;21993;42.672;23.296;2023-06-22T06:45:17;14.07;;;11.67;;
35891;SDS011;21993;42.672;23.296;2023-06-22T06:47:44;12.63;;;11.20;;
35891;SDS011;21993;42.672;23.296;2023-06-22T06:50:10;15.47;;;12.13;;
35891;SDS011;21993;42.672;23.296;2023-06-22T06:52:36;14.83;;;11.90;;
35891;SDS011;21993;42.672;23.296;2023-06-22T06:55:02;15.13;;;12.37;;
35891;SDS011;21993;42.672;23.296;2023-06-22T06:57:29;14.97;;;11.80;;
35891;SDS011;21993;42.672;23.296;2023-06-22T06:59:57;12.63;;;11.33;;
35891;SDS011;21993;42.672;23.296;2023-06-22T07:02:23;18.20;;;11.93;;
35891;SDS011;21993;42.672;23.296;2023-06-22T07:04:49;18.27;;;11.53;;
35891;SDS011;21993;42.672;23.296;2023-06-22T07:07:15;15.03;;;11.70;;
35891;SDS011;21993;42.672;23.296;2023-06-22T07:09:40;13.97;;;11.50;;
35891;SDS011;21993;42.672;23.296;2023-06-22T07:12:06;16.73;;;11.80;;
35891;SDS011;21993;42.672;23.296;2023-06-22T07:14:32;13.47;;;10.90;;
35891;SDS011;21993;42.672;23.296;2023-06-22T07:16:57;15.13;;;11.97;;
35891;SDS011;21993;42.672;23.296;2023-06-22T07:19:27;13.80;;;11.90;;
35891;SDS011;21993;42.672;23.296;2023-06-22T07:21:53;19.80;;;15.17;;
35891;SDS011;21993;42.672;23.296;2023-06-22T07:24:19;14.63;;;11.67;;
35891;SDS011;21993;42.672;23.296;2023-06-22T07:26:46;12.93;;;10.87;;
35891;SDS011;21993;42.672;23.296;2023-06-22T07:29:15;14.73;;;11.43;;
35891;SDS011;21993;42.672;23.296;2023-06-22T07:31:46;14.03;;;10.73;;
35891;SDS011;21993;42.672;23.296;2023-06-22T07:34:12;18.77;;;12.90;;
35891;SDS011;21993;42.672;23.296;2023-06-22T07:36:38;16.70;;;10.90;;
35891;SDS011;21993;42.672;23.296;2023-06-22T07:39:04;14.73;;;11.30;;
35891;SDS011;21993;42.672;23.296;2023-06-22T07:41:30;16.50;;;11.07;;
35891;SDS011;21993;42.672;23.296;2023-06-22T07:43:56;15.60;;;11.43;;
35891;SDS011;21993;42.672;23.296;2023-06-22T07:46:22;15.13;;;10.93;;
35891;SDS011;21993;42.672;23.296;2023-06-22T07:48:47;14.20;;;11.50;;
35891;SDS011;21993;42.672;23.296;2023-06-22T07:51:13;16.57;;;11.43;;
35891;SDS011;21993;42.672;23.296;2023-06-22T07:53:40;19.97;;;11.77;;
35891;SDS011;21993;42.672;23.296;2023-06-22T07:56:06;13.43;;;11.70;;
35891;SDS011;21993;42.672;23.296;2023-06-22T07:58:32;15.77;;;12.50;;
35891;SDS011;21993;42.672;23.296;2023-06-22T08:00:59;15.17;;;11.10;;
35891;SDS011;21993;42.672;23.296;2023-06-22T08:03:25;15.40;;;11.20;;
35891;SDS011;21993;42.672;23.296;2023-06-22T08:05:50;12.03;;;10.83;;
35891;SDS011;21993;42.672;23.296;2023-06-22T08:08:15;11.23;;;10.10;;
35891;SDS011;21993;42.672;23.296;2023-06-22T08:10:41;14.10;;;10.80;;
35891;SDS011;21993;42.672;23.296;2023-06-22T08:13:07;15.93;;;10.70;;
35891;SDS011;21993;42.672;23.296;2023-06-22T08:15:33;12.47;;;10.80;;
35891;SDS011;21993;42.672;23.296;2023-06-22T08:17:58;14.13;;;9.90;;
35891;SDS011;21993;42.672;23.296;2023-06-22T08:20:25;12.97;;;10.63;;
35891;SDS011;21993;42.672;23.296;2023-06-22T08:22:51;15.13;;;10.40;;
35891;SDS011;21993;42.672;23.296;2023-06-22T08:25:19;19.13;;;11.27;;
35891;SDS011;21993;42.672;23.296;2023-06-22T08:27:45;12.30;;;11.00;;
35891;SDS011;21993;42.672;23.296;2023-06-22T08:30:12;13.23;;;10.73;;
35891;SDS011;21993;42.672;23.296;2023-06-22T08:32:37;13.27;;;10.27;;
35891;SDS011;21993;42.672;23.296;2023-06-22T08:35:03;12.03;;;10.83;;
35891;SDS011;21993;42.672;23.296;2023-06-22T08:37:28;11.90;;;10.63;;
35891;SDS011;21993;42.672;23.296;2023-06-22T08:40:00;12.20;;;9.37;;
35891;SDS011;21993;42.672;23.296;2023-06-22T08:42:26;15.07;;;10.20;;
35891;SDS011;21993;42.672;23.296;2023-06-22T08:44:52;15.93;;;9.87;;
35891;SDS011;21993;42.672;23.296;2023-06-22T08:47:18;9.90;;;8.97;;
35891;SDS011;21993;42.672;23.296;2023-06-22T08:49:44;10.07;;;8.63;;
35891;SDS011;21993;42.672;23.296;2023-06-22T08:52:10;11.37;;;9.20;;
35891;SDS011;21993;42.672;23.296;2023-06-22T08:54:35;18.20;;;9.50;;
35891;SDS011;21993;42.672;23.296;2023-06-22T08:57:01;11.80;;;9.07;;
35891;SDS011;21993;42.672;23.296;2023-06-22T08:59:27;10.97;;;9.30;;
35891;SDS011;21993;42.672;23.296;2023-06-22T09:01:52;9.30;;;8.40;;
35891;SDS011;21993;42.672;23.296;2023-06-22T09:04:18;12.83;;;9.07;;
35891;SDS011;21993;42.672;23.296;2023-06-22T09:06:43;10.47;;;9.37;;
35891;SDS011;21993;42.672;23.296;2023-06-22T09:09:11;11.70;;;8.87;;
35891;SDS011;21993;42.672;23.296;2023-06-22T09:11:38;11.30;;;9.97;;
35891;SDS011;21993;42.672;23.296;2023-06-22T09:14:03;10.83;;;9.13;;
35891;SDS011;21993;42.672;23.296;2023-06-22T09:16:29;13.70;;;9.40;;
35891;SDS011;21993;42.672;23.296;2023-06-22T09:18:55;8.97;;;8.10;;
35891;SDS011;21993;42.672;23.296;2023-06-22T09:21:20;9.93;;;8.60;;
35891;SDS011;21993;42.672;23.296;2023-06-22T09:23:46;9.20;;;8.00;;
35891;SDS011;21993;42.672;23.296;2023-06-22T09:26:15;9.30;;;7.93;;
35891;SDS011;21993;42.672;23.296;2023-06-22T09:28:40;12.77;;;10.73;;
35891;SDS011;21993;42.672;23.296;2023-06-22T09:31:06;10.43;;;8.53;;
35891;SDS011;21993;42.672;23.296;2023-06-22T09:33:31;9.10;;;8.17;;
35891;SDS011;21993;42.672;23.296;2023-06-22T09:35:57;9.73;;;8.30;;
35891;SDS011;21993;42.672;23.296;2023-06-22T09:38:22;11.37;;;7.90;;
35891;SDS011;21993;42.672;23.296;2023-06-22T09:40:48;9.13;;;8.23;;
35891;SDS011;21993;42.672;23.296;2023-06-22T09:43:13;11.00;;;7.93;;
35891;SDS011;21993;42.672;23.296;2023-06-22T09:45:39;8.87;;;7.93;;
35891;SDS011;21993;42.672;23.296;2023-06-22T09:48:04;10.13;;;8.13;;
35891;SDS011;21993;42.672;23.296;2023-06-22T09:50:30;9.47;;;8.37;;
35891;SDS011;21993;42.672;23.296;2023-06-22T09:52:55;9.70;;;8.20;;
35891;SDS011;21993;42.672;23.296;2023-06-22T09:55:21;8.67;;;7.57;;
35891;SDS011;21993;42.672;23.296;2023-06-22T09:57:47;8.80;;;7.60;;
35891;SDS011;21993;42.672;23.296;2023-06-22T10:00:12;8.57;;;7.67;;
35891;SDS011;21993;42.672;23.296;2023-06-22T10:02:40;10.00;;;8.27;;
35891;SDS011;21993;42.672;23.296;2023-06-22T10:05:06;9.47;;;8.47;;
35891;SDS011;21993;42.672;23.296;2023-06-22T10:07:32;9.20;;;8.30;;
35891;SDS011;21993;42.672;23.296;2023-06-22T10:09:58;9.13;;;8.27;;
35891;SDS011;21993;42.672;23.296;2023-06-22T10:12:24;10.43;;;9.23;;
35891;SDS011;21993;42.672;23.296;2023-06-22T10:14:49;10.27;;;9.03;;
35891;SDS011;21993;42.672;23.296;2023-06-22T10:17:14;9.73;;;8.73;;
35891;SDS011;21993;42.672;23.296;2023-06-22T10:19:40;9.83;;;8.70;;
35891;SDS011;21993;42.672;23.296;2023-06-22T10:22:06;11.97;;;9.43;;
35891;SDS011;21993;42.672;23.296;2023-06-22T10:24:32;10.43;;;9.33;;
35891;SDS011;21993;42.672;23.296;2023-06-22T10:26:57;11.43;;;9.13;;
35891;SDS011;21993;42.672;23.296;2023-06-22T10:29:22;10.73;;;9.47;;
35891;SDS011;21993;42.672;23.296;2023-06-22T10:31:48;10.13;;;8.87;;
35891;SDS011;21993;42.672;23.296;2023-06-22T10:34:13;10.10;;;9.07;;
35891;SDS011;21993;42.672;23.296;2023-06-22T10:36:39;9.90;;;9.00;;
35891;SDS011;21993;42.672;23.296;2023-06-22T10:39:04;10.60;;;9.10;;
35891;SDS011;21993;42.672;23.296;2023-06-22T10:41:30;14.03;;;9.50;;
35891;SDS011;21993;42.672;23.296;2023-06-22T10:43:56;9.33;;;8.43;;
35891;SDS011;21993;42.672;23.296;2023-06-22T10:46:23;10.97;;;9.67;;
35891;SDS011;21993;42.672;23.296;2023-06-22T10:48:50;9.87;;;8.90;;
35891;SDS011;21993;42.672;23.296;2023-06-22T10:51:19;11.23;;;9.83;;
35891;SDS011;21993;42.672;23.296;2023-06-22T10:53:44;11.20;;;9.23;;
35891;SDS011;21993;42.672;23.296;2023-06-22T10:56:10;13.20;;;9.27;;
35891;SDS011;21993;42.672;23.296;2023-06-22T10:58:35;11.10;;;10.00;;
35891;SDS011;21993;42.672;23.296;2023-06-22T11:01:00;14.53;;;9.73;;
35891;SDS011;21993;42.672;23.296;2023-06-22T11:03:27;10.13;;;8.80;;
35891;SDS011;21993;42.672;23.296;2023-06-22T11:05:53;10.00;;;9.00;;
35891;SDS011;21993;42.672;23.296;2023-06-22T11:08:18;10.93;;;9.00;;
35891;SDS011;21993;42.672;23.296;2023-06-22T11:10:44;10.30;;;9.30;;
35891;SDS011;21993;42.672;23.296;2023-06-22T11:13:09;10.20;;;9.27;;
35891;SDS011;21993;42.672;23.296;2023-06-22T11:15:35;14.63;;;9.50;;
35891;SDS011;21993;42.672;23.296;2023-06-22T11:18:01;9.60;;;8.63;;
35891;SDS011;21993;42.672;23.296;2023-06-22T11:20:26;9.87;;;8.90;;
35891;SDS011;21993;42.672;23.296;2023-06-22T11:22:51;14.20;;;9.53;;
35891;SDS011;21993;42.672;23.296;2023-06-22T11:25:17;11.73;;;9.27;;
35891;SDS011;21993;42.672;23.296;2023-06-22T11:27:42;14.60;;;9.70;;
35891;SDS011;21993;42.672;23.296;2023-06-22T11:30:08;10.13;;;9.13;;
35891;SDS011;21993;42.672;23.296;2023-06-22T11:32:34;12.20;;;8.80;;
35891;SDS011;21993;42.672;23.296;2023-06-22T11:34:59;9.80;;;8.57;;
35891;SDS011;21993;42.672;23.296;2023-06-22T11:37:25;11.30;;;8.60;;
35891;SDS011;21993;42.672;23.296;2023-06-22T11:39:51;11.43;;;9.00;;
35891;SDS011;21993;42.672;23.296;2023-06-22T11:42:16;11.17;;;9.13;;
35891;SDS011;21993;42.672;23.296;2023-06-22T11:44:42;11.50;;;8.83;;
35891;SDS011;21993;42.672;23.296;2023-06-22T11:47:08;11.53;;;9.37;;
35891;SDS011;21993;42.672;23.296;2023-06-22T11:49:34;11.57;;;10.37;;
35891;SDS011;21993;42.672;23.296;2023-06-22T11:51:59;13.33;;;10.57;;
35891;SDS011;21993;42.672;23.296;2023-06-22T11:54:25;11.67;;;9.83;;
35891;SDS011;21993;42.672;23.296;2023-06-22T11:56:50;11.97;;;8.97;;
35891;SDS011;21993;42.672;23.296;2023-06-22T11:59:15;11.50;;;8.70;;
35891;SDS011;21993;42.672;23.296;2023-06-22T12:01:41;9.73;;;8.73;;
35891;SDS011;21993;42.672;23.296;2023-06-22T12:04:06;11.37;;;9.00;;
35891;SDS011;21993;42.672;23.296;2023-06-22T12:06:32;14.93;;;10.47;;
35891;SDS011;21993;42.672;23.296;2023-06-22T12:08:58;10.83;;;9.30;;
35891;SDS011;21993;42.672;23.296;2023-06-22T12:11:24;12.50;;;9.77;;
35891;SDS011;21993;42.672;23.296;2023-06-22T12:13:49;9.80;;;8.60;;
35891;SDS011;21993;42.672;23.296;2023-06-22T12:16:15;11.07;;;9.70;;
35891;SDS011;21993;42.672;23.296;2023-06-22T12:18:40;12.50;;;8.57;;
35891;SDS011;21993;42.672;23.296;2023-06-22T12:21:05;11.13;;;9.27;;
35891;SDS011;21993;42.672;23.296;2023-06-22T12:23:31;15.87;;;10.27;;
35891;SDS011;21993;42.672;23.296;2023-06-22T12:25:57;12.27;;;9.90;;
35891;SDS011;21993;42.672;23.296;2023-06-22T12:28:23;16.77;;;12.90;;
35891;SDS011;21993;42.672;23.296;2023-06-22T12:30:48;12.33;;;9.47;;
35891;SDS011;21993;42.672;23.296;2023-06-22T12:33:14;10.70;;;9.70;;
35891;SDS011;21993;42.672;23.296;2023-06-22T12:35:39;11.43;;;9.93;;
35891;SDS011;21993;42.672;23.296;2023-06-22T12:38:05;11.50;;;9.60;;
35891;SDS011;21993;42.672;23.296;2023-06-22T12:40:32;12.40;;;9.07;;
35891;SDS011;21993;42.672;23.296;2023-06-22T12:42:58;14.53;;;9.87;;
35891;SDS011;21993;42.672;23.296;2023-06-22T12:45:23;17.43;;;10.10;;
35891;SDS011;21993;42.672;23.296;2023-06-22T12:47:50;12.90;;;10.17;;
35891;SDS011;21993;42.672;23.296;2023-06-22T12:50:15;11.73;;;8.70;;
35891;SDS011;21993;42.672;23.296;2023-06-22T12:52:41;15.93;;;9.70;;
35891;SDS011;21993;42.672;23.296;2023-06-22T12:55:07;10.93;;;9.30;;
35891;SDS011;21993;42.672;23.296;2023-06-22T12:57:35;14.07;;;8.70;;
35891;SDS011;21993;42.672;23.296;2023-06-22T13:00:01;14.13;;;8.77;;
35891;SDS011;21993;42.672;23.296;2023-06-22T13:02:26;14.57;;;8.97;;
35891;SDS011;21993;42.672;23.296;2023-06-22T13:04:51;14.27;;;8.87;;
35891;SDS011;21993;42.672;23.296;2023-06-22T13:07:20;14.00;;;8.57;;
35891;SDS011;21993;42.672;23.296;2023-06-22T13:09:46;11.43;;;9.77;;
35891;SDS011;21993;42.672;23.296;2023-06-22T13:12:16;11.20;;;8.60;;
35891;SDS011;21993;42.672;23.296;2023-06-22T13:14:41;11.53;;;8.07;;
35891;SDS011;21993;42.672;23.296;2023-06-22T13:17:08;11.37;;;8.63;;
35891;SDS011;21993;42.672;23.296;2023-06-22T13:19:33;12.50;;;9.37;;
35891;SDS011;21993;42.672;23.296;2023-06-22T13:21:59;10.53;;;9.13;;
35891;SDS011;21993;42.672;23.296;2023-06-22T13:24:25;15.33;;;9.00;;
35891;SDS011;21993;42.672;23.296;2023-06-22T13:26:50;12.90;;;8.90;;
35891;SDS011;21993;42.672;23.296;2023-06-22T13:29:16;9.77;;;8.37;;
35891;SDS011;21993;42.672;23.296;2023-06-22T13:31:41;9.47;;;8.37;;
35891;SDS011;21993;42.672;23.296;2023-06-22T13:34:07;13.67;;;9.33;;
35891;SDS011;21993;42.672;23.296;2023-06-22T13:36:32;10.53;;;9.37;;
35891;SDS011;21993;42.672;23.296;2023-06-22T13:38:58;14.00;;;8.60;;
35891;SDS011;21993;42.672;23.296;2023-06-22T13:41:23;12.57;;;8.83;;
35891;SDS011;21993;42.672;23.296;2023-06-22T13:43:48;10.50;;;9.03;;
35891;SDS011;21993;42.672;23.296;2023-06-22T13:46:14;14.70;;;9.27;;
35891;SDS011;21993;42.672;23.296;2023-06-22T13:48:40;14.77;;;9.83;;
35891;SDS011;21993;42.672;23.296;2023-06-22T13:51:05;14.00;;;9.93;;
35891;SDS011;21993;42.672;23.296;2023-06-22T13:53:31;12.00;;;9.80;;
35891;SDS011;21993;42.672;23.296;2023-06-22T13:55:56;13.50;;;9.13;;
35891;SDS011;21993;42.672;23.296;2023-06-22T13:58:22;14.80;;;10.40;;
35891;SDS011;21993;42.672;23.296;2023-06-22T14:00:47;12.83;;;10.87;;
35891;SDS011;21993;42.672;23.296;2023-06-22T14:03:14;13.33;;;9.43;;
35891;SDS011;21993;42.672;23.296;2023-06-22T14:05:41;11.87;;;9.00;;
35891;SDS011;21993;42.672;23.296;2023-06-22T14:08:07;13.33;;;8.77;;
35891;SDS011;21993;42.672;23.296;2023-06-22T14:10:32;12.47;;;9.33;;
35891;SDS011;21993;42.672;23.296;2023-06-22T14:12:58;17.63;;;8.13;;
35891;SDS011;21993;42.672;23.296;2023-06-22T14:15:28;15.30;;;9.07;;
35891;SDS011;21993;42.672;23.296;2023-06-22T14:17:53;12.70;;;8.50;;
35891;SDS011;21993;42.672;23.296;2023-06-22T14:20:18;17.50;;;8.30;;
35891;SDS011;21993;42.672;23.296;2023-06-22T14:22:44;13.73;;;10.20;;